33. Schweizer Frauenlauf Bern 2019 33. Schweizer Frauenlauf Bern 2019 r£©sultats rang nom...

Click here to load reader

download 33. Schweizer Frauenlauf Bern 2019 33. Schweizer Frauenlauf Bern 2019 r£©sultats rang nom et pr£©nom

of 183

  • date post

    07-Aug-2020
  • Category

    Documents

  • view

    0
  • download

    0

Embed Size (px)

Transcript of 33. Schweizer Frauenlauf Bern 2019 33. Schweizer Frauenlauf Bern 2019 r£©sultats rang nom...

  • 33. Schweizer Frauenlauf Bern 2019 résultats

    rang nom et prénom âge lieu club temps écart min/km dossard Altersklasse

    Overall 10km Running

    1. Egger Nicole 85 Langenthal LV Langenthal 36:06 3:36 101 W30: 1.

    2. Leutert Astrid 87 Bern All Blacks Thun 37:44 +1:38 3:46 119 W30: 2.

    3. Aeschbacher Daniela 78 Bärau TVL Länggasse 37:45 +1:39 3:46 112 W40: 1.

    4. Aebi Céline 96 Utzenstorf LV Langenthal 38:01 +1:55 3:48 118 W20: 1.

    5. Miglar Lina 88 Wallisellen TG Hütten 38:29 +2:23 3:50 1221 W30: 3.

    6. Hegner Simone 82 Bern 38:52 +2:46 3:53 1060 W35: 1.

    7. Kaufmann Seraina 99 Ftan SSC Rätia Chur 39:36 +3:30 3:57 1076 W20: 2.

    8. Rebsamen Pascale 93 Zürich TG Hütten 39:42 +3:36 3:58 1227 W20: 3.

    9. Knuchel Kathrin 79 Thun All Blacks 39:44 +3:38 3:58 1204 W40: 2.

    10. Landtwing Vera 83 Therwil LC Therwil 39:45 +3:39 3:58 1080 W35: 2.

    11. Hofer Monique 78 Tschugg 40:14 +4:08 4:01 1258 W40: 3.

    12. Fankhauser Beatrice 59 Roggwil BE keiner 40:21 +4:15 4:02 1039 W60: 1.

    13. Scherling Aina 05 Guttannen Laufgruppe Willigen 40:30 +4:24 4:03 1126 U16: 1.

    14. Gubler Lisa 87 Uster LC Uster 40:36 +4:30 4:03 111 W30: 4.

    15. Joux-Di Certo Justine 87 Semsales 40:53 +4:47 4:05 1200 W30: 5.

    16. Isaline Bonnemain 89 Rossemaison Boldair 41:03 +4:57 4:06 2167 W30: 6.

    17. Zumwald Judith 74 Schmitten FR LAT Sense 41:12 +5:06 4:07 1170 W45: 1.

    18. Scherling Sina 03 Guttannen Laufgruppe Willigen 41:17 +5:11 4:07 1127 U18: 1.

    19. Suter Corinne 00 Wengi b. Frutigen 41:18 +5:12 4:07 1152 U20: 1.

    20. Balmer Noemi 97 Aarberg 41:21 +5:15 4:08 1011 W20: 4.

    21. Bertozzi Elisa 00 Comano GOLD Savosa 41:33 +5:27 4:09 1015 U20: 2.

    22. Tschachtli Seraina 01 Kerzers Run and Walk Kerzers 41:37 +5:31 4:09 1157 U20: 3.

    23. Ryf Michelle 97 Bern 41:40 +5:34 4:10 1231 W20: 5.

    24. Marty Melina 88 Bürglen UR 41:47 +5:41 4:10 1094 W30: 7.

    25. Killer Regine 76 Rüfenach AG LSG Brogg 41:50 +5:44 4:11 1077 W40: 4.

    26. Blatter Jana 00 Hasliberg Goldern 41:50 +5:44 4:11 1020 U20: 4.

    27. Baer Natascha 94 Kandersteg 41:53 +5:47 4:11 1174 W20: 6.

    28. Helfenberger Claudia 66 Arnegg LAG Gossau 41:58 +5:52 4:11 1193 W50: 1.

    29. Schiffmann Chantal 70 Burgdorf 41:59 +5:53 4:11 1129 W45: 2.

    30. Lanz Cécile 68 Thun 42:03 +5:57 4:12 1081 W50: 2.

    31. Müller Gloria 99 Unterägeri OLV Zug 42:20 +6:14 4:14 1106 W20: 7.

    32. Bucher Tabitha 86 Wabern 42:34 +6:28 4:15 1181 W30: 8.

    33. Liechti Jasmin 02 Burgdorf olv hindelbank 42:39 +6:33 4:15 1084 U18: 2.

    34. Taillard Nina 90 Bern 42:41 +6:35 4:16 1154 W20: 8.

    35. von Bergen Rahel 76 Schattenhalb Laufgruppe Willigen 42:53 +6:47 4:17 1159 W40: 5.

    36. Bleiker Silvia 80 Oberbipp 42:56 +6:50 4:17 1021 W35: 3.

    37. Käser Estelle 92 Bern 43:03 +6:57 4:18 1074 W20: 9.

    38. Berchtold Rachel 80 Bern LC Zürich 43:04 +6:58 4:18 1014 W35: 4.

    39. Brügger Sandra 81 Basel 43:05 +6:59 4:18 1180 W35: 5.

    40. Kaufmann Aita 97 Ftan SSC Rätia Chur 43:11 +7:05 4:19 1075 W20: 10.

    41. Nelissen Henrike 97 Fislisbach LV Wettingen-Baden 43:17 +7:11 4:19 1110 W20: 11.

    42. Rhyner Susanna 75 Elm 43:25 +7:19 4:20 1120 W40: 6.

    43. Canzani Anna 00 Untersiggenthal Kanti Wettingen 43:28 +7:22 4:20 1002 U20: 5.

    44. Kühne Sinja 01 43:30 +7:24 4:21 1005 U20: 6.

    45. Wertli Beatrice 76 Bern 43:31 +7:25 4:21 1162 W40: 7.

    46. Schulthess Zettel Monica 73 Muri b. Bern 43:32 +7:26 4:21 1140 W45: 3.

    47. Frei Jasmin 01 Klingnau Kanti Wettingen 43:35 +7:29 4:21 1003 U20: 7.

    48. Heer Jennifer 86 Zürich 43:36 +7:30 4:21 1059 W30: 9.

    49. Clément Sandrine 75 Pâquier-Montbarry SA Bulle 43:44 +7:38 4:22 1187 W40: 8.

    50. Vonäsch Jana 01 Brunnen 43:44 +7:38 4:22 1007 U20: 8.

    17.06.2019 12:51 1/75

  • 33. Schweizer Frauenlauf Bern 2019 résultats

    rang nom et prénom âge lieu club temps écart min/km dossard Altersklasse

    Overall 10km Running

    51. Franck Marigna 92 St.Gallen 43:46 +7:40 4:22 2036 W20: 12.

    52. Trummer Léonie 91 Baden 43:49 +7:43 4:22 1156 W20: 13.

    53. Schaffner Chiara 98 Oftringen 43:50 +7:44 4:23 1232 W20: 14.

    54. Grossen Cornelia 94 Adelboden 43:51 +7:45 4:23 1053 W20: 15.

    55. Moulin-Lantz Armelle 72 Thalwil SSC Langnau 43:51 +7:45 4:23 1104 W45: 4.

    56. Kübele Petra 73 Bern 43:58 +7:52 4:23 1261 W45: 5.

    57. Zaugg Nathalie 93 Bern 43:59 +7:53 4:23 1253 W20: 16.

    58. Troxler Patricia 91 Luzern 44:00 +7:54 4:24 1248 W20: 17.

    59. Naumann Mirjam 82 St. Gallen Track Club St. Gallen 44:01 +7:55 4:24 1223 W35: 6.

    60. Zimmermann Camille 85 Aetigkofen 44:07 +8:01 4:24 1169 W30: 10.

    61. Gysin Myriam 80 Lausen DR Wenslingen 44:15 +8:09 4:25 1056 W35: 7.

    62. Mosetto Annamaria 83 Lausanne 44:15 +8:09 4:25 1103 W35: 8.

    63. Lehmann Pascale 97 Krauchthal 44:19 +8:13 4:25 1082 W20: 18.

    64. Gut Jeannette 70 Thalheim an der Thur finsher Winterthur 44:23 +8:17 4:26 1054 W45: 6.

    65. Cohen Rachel 68 Kirchberg BE 44:26 +8:20 4:26 1032 W50: 3.

    66. Bützberger-Grimm Marion 86 Meilen LC Meilen 44:26 +8:20 4:26 1029 W30: 11.

    67. Schlaeppi Chloé 91 Basel 44:31 +8:25 4:27 1132 W20: 19.

    68. Briggeler Monika 92 Belp LSV Uetendorf 44:35 +8:29 4:27 1024 W20: 20.

    69. Schlaubitz Alexa 02 Meggen 44:35 +8:29 4:27 1238 U18: 3.

    70. Leutert Antonia 93 Schinznach Dorf 44:41 +8:35 4:28 1212 W20: 21.

    71. Fercher Lisa 00 Aarberg TV Aarberg 44:42 +8:36 4:28 1041 U20: 9.

    72. Müller Lavinia 02 Unterägeri OLV Zug 44:42 +8:36 4:28 1107 U18: 4.

    73. Speich Cornelia 90 Sissach TV Sissach 44:43 +8:37 4:28 1148 W20: 22.

    74. Minikus Giulia 98 Wettingen LV Wettingen Baden 44:44 +8:38 4:28 1100 W20: 23.

    75. Loretan Ariane 94 Brig-Glis STB 44:46 +8:40 4:28 1215 W20: 24.

    76. Epprecht Melissa 03 Worb Gerber Sport Gümli... 44:50 +8:44 4:29 1189 U18: 5.

    77. Kamber Lara 90 Wangen b. Olten 44:50 +8:44 4:29 1071 W20: 25.

    78. Kümmel Anne 77 Basel Mööh 44:50 +8:44 4:29 1207 W40: 9.

    79. Leonie Buri 03 Lyssach OLV Hindelbank 44:52 +8:46 4:29 1211 U18: 6.

    80. Schmid-Stoller Barbara 67 Spiez Lauftreff Spiez 44:52 +8:46 4:29 1135 W50: 4.

    81. Drescher Andrea 92 Basel 44:53 +8:47 4:29 1035 W20: 26.

    82. Schwartz Valérie 97 Giffers 44:57 +8:51 4:29 1240 W20: 27.

    83. Zaugg Christine 83 Münsingen 45:10 +9:04 4:31 1166 W35: 9.

    84. Bär Lucienne 80 Krinau 45:11 +9:05 4:31 1175 W35: 10.

    85. Burri Emmanuelle 79 Vessy 45:11 +9:05 4:31 1184 W40: 10.

    86. Näf Sandra 81 Plaffeien 45:12 +9:06 4:31 1222 W35: 11.

    87. von Känel Sofie 96 Bern 45:19 +9:13 4:31 1160 W20: 28.

    88. Oppliger Katja 78 Thürnen Lauftreff 45:22 +9:16 4:32 2096 W40: 11.

    89. Zurwerra-Salzmann Natal... 68 Glis Rhone Runners 45:23 +9:17 4:32 1254 W50: 5.

    90. Hirsbrunner Rahel 02 Aeschau 45:24 +9:18 4:32 1195 U18: 7.

    91. Hutter Luciana 02 Wil SG KTV Wil Leichtathletik 45:29 +9:23 4:32 2166 U18: 8.

    92. Gähler Heidi 69 Wald AR SV Rehetobel 45:30 +9:24 4:33 1044 W50: 6.

    93. Regli Dorina 91 Visp 45:30 +9:24 4:33 3291 W20: 29.

    94. Maarouf Teuscher Yvonne 78 Bern STB 45:31 +9:25 4:33 1089 W40: 12.

    95. Amstutz Melanie 87 Hindelbank Bewegung Plus 45:31 +9:25 4:33 1173 W30: 12.

    96. Jorquera Pia 72 Bremgarten bei Bern STB 45:32 +9:26 4:33 1067 W45: 7.

    97. Neiger Lea 98 Unterbach BE 45:32 +9:26 4:33 2093 W20: 30.

    98. Wissmann Anita 80 Wallisellen cityrunning.ch 45:32 +9:26 4:33 1164 W35: 12.

    99. Barras Valentine 87 Sion 45:33 +9:27 4:33 2005 W30: 13.

    100. Gantenbein Sandra 84 Bern STB 45:34 +9:28 4:33 1045 W35: 13.

    17.06.2019 12:51 2/75

  • 33. Schweizer Frauenlauf Bern 2019 résultats

    rang nom et prénom âge lieu club temps écart min/km dossard Altersklasse

    Overall 10km Running

    101. Serra Elena 93 Bern 45:35 +9:29 4:33 1241 W20: 31.

    102. Matzinger Evelyne 65 Saland LC Uster 45:37 +9:31 4:33 1264 W50: 7.

    103. Grob Julie 00 Meikirch 45:38 +9:32 4:33 1191 U20: 10.

    104. Schillig-Planzer Stefanie 67 Altdorf UR 45:38 +9:32 4:33 1131 W50: 8.

    105. Kolly Christel 98 Plasselb 45:41 +9:35 4:34 1079 W20: 32.

    106. Christen Anita 70 Muri AG LVF 45:43 +9:37 4:34 1186 W45: 8.

    107. Ruetsch Andrea 85 Zürich 45:43 +9:37 4:34 2111 W30: 14.

    108. Hegner Nicole 84 Herrenschwanden 45:47 +9:41 4:34 2161 W35: 14.

    109. Schoch Sophia 93 Otelfingen 45:48 +9:42 4:34 1139 W20: 33.

    110. Rüegg Michèle 02 45:49 +9:43 4:34 1001 U18: 9.

    111. Cambi Diana 72 Ortschwaben 45:53 +9:47 4:35 1030 W45: 9.

    112. Mertin Mirjam 91 Bern 45:56 +9:50 4:35 1218 W20: 34.

    113. Perren Marianne 75 Wichtrach LSV Uetendorf 45:58 +9:52 4:35 1113 W40: 13.

    114. Schmid Vanessa 95 Naters TV Naters 45:59 +9:53 4:35 1239 W20: 35.

    115. Wälti Claudia 96 Bern 45:59 +9:53 4:35 1250 W20: 36.

    116. Manaa Rita 72 Herzogenbuchsee 46:00 +9:54 4:36 1090 W45: 10.

    117. Rellstab Sarah 04 Münchenbuchsee 46:01 +9:55 4:36 1119 U16: 2.

    118. Kallen Tabea 92 Bern 46:02 +9:56 4:36 1070 W20: 37.

    119. Käppeli Valentina 79 Thierachern 46:02 +9:56 4:36 1202 W40: 14.

    120. Castella Isabelle 88 Sion 46:02 +9:56 4:36 2020 W30: 15.

    121. Monn Raphaela 94 Zug Anita active 46:04 +9:58 4:36 2086 W20: 38.

    122. Schär Priska 88 Forch 46:07 +10:01 4:36 1234 W30: 16.

    123. Nussli Beatrice 66 Burgdorf 46:08 +10:02 4:36 1111 W50: 9.

    124. Studer Laetitia 01 Malleray-Bévilard 46:09 +10:03